Weather at Fitchburg Municipal Airport

Public forecast

Using degrees Fahrenheit for public forecast. Weather courtesy of forecast.io.

Current aviation weather report (METAR) for Fitchburg Municipal Airport

Retrieved 2021/01/16 22:07 UTC (6 minutes ago):

KFIT 162207Z AUTO 24005KT 10SM OVC015 06/04 A2927 RMK AO2 T00560039

Closest aviation forecast (TAF) to Fitchburg Municipal Airport

Closest forecast is Worcester Regional Airport, 18.0 nm (33.3 km) SSW. Retrieved 2021/01/16 18:27 UTC (4 hours ago):

TAF KORH 161724Z 1618/1718 22009KT 1/2SM -SHRA FG OVC003 FM161830 24010G20KT 4SM BR VCSH BKN003 FM162100 25009KT P6SM BKN010 FM170000 25012G24KT P6SM BKN025 FM170100 25012G25KT P6SM BKN050 FM171600 25020G35KT P6SM BKN035